createdAt,value
2019-02-16T00:00:15.890Z,25.43
2019-02-16T00:04:22.614Z,25.87
2019-02-16T00:08:27.605Z,19.97
2019-02-16T00:12:33.857Z,20.37
2019-02-16T00:16:38.880Z,19.00
2019-02-16T00:20:43.904Z,20.90
2019-02-16T00:24:48.918Z,21.77
2019-02-16T00:28:53.911Z,24.53
2019-02-16T00:32:58.976Z,22.70
2019-02-16T00:37:04.124Z,19.07
2019-02-16T00:41:09.236Z,22.43
2019-02-16T00:45:14.304Z,17.33
2019-02-16T00:49:19.323Z,17.33
2019-02-16T00:53:24.356Z,21.67
2019-02-16T00:57:29.319Z,15.23
2019-02-16T01:01:34.360Z,18.63
2019-02-16T01:05:39.374Z,18.97
2019-02-16T01:09:44.361Z,21.23
2019-02-16T01:13:49.358Z,24.40
2019-02-16T01:17:54.385Z,25.87
2019-02-16T01:21:59.401Z,23.10
2019-02-16T01:26:04.412Z,26.17
2019-02-16T01:30:10.179Z,23.33
2019-02-16T01:34:15.204Z,20.70
2019-02-16T01:38:20.244Z,24.20
2019-02-16T01:42:25.267Z,26.97
2019-02-16T01:46:30.299Z,19.33
2019-02-16T01:50:36.956Z,20.87
2019-02-16T01:54:41.952Z,20.17
2019-02-16T01:58:47.034Z,18.43
2019-02-16T02:02:52.052Z,17.43
2019-02-16T02:06:57.088Z,15.70
2019-02-16T02:11:02.272Z,16.87
2019-02-16T02:15:09.660Z,16.33
2019-02-16T02:19:14.743Z,14.10
2019-02-16T02:23:19.791Z,17.13
2019-02-16T02:27:24.926Z,18.97
2019-02-16T02:31:29.953Z,17.53
2019-02-16T02:35:34.955Z,17.30
2019-02-16T02:39:39.953Z,15.37
2019-02-16T02:43:44.961Z,18.10
2019-02-16T02:47:49.965Z,16.83
2019-02-16T02:51:55.014Z,20.87
2019-02-16T02:56:00.035Z,18.73
2019-02-16T03:00:07.906Z,19.47
2019-02-16T03:04:12.906Z,16.60
2019-02-16T03:08:17.928Z,20.93
2019-02-16T03:12:22.977Z,20.37
2019-02-16T03:16:27.979Z,20.47
2019-02-16T03:20:33.041Z,17.80
2019-02-16T03:24:39.123Z,21.43
2019-02-16T03:28:47.257Z,19.67
2019-02-16T03:33:10.677Z,19.70
2019-02-16T03:37:45.541Z,17.90
2019-02-16T03:41:50.547Z,16.23
2019-02-16T03:45:55.536Z,16.50
2019-02-16T03:50:00.544Z,18.77
2019-02-16T03:54:05.559Z,18.77
2019-02-16T03:58:10.594Z,15.93
2019-02-16T04:02:15.687Z,16.53
2019-02-16T04:06:20.656Z,20.20
2019-02-16T04:10:25.672Z,19.40
2019-02-16T04:14:30.692Z,15.27
2019-02-16T04:18:35.705Z,15.97
2019-02-16T04:22:41.779Z,15.63
2019-02-16T04:26:46.775Z,13.67
2019-02-16T04:30:51.791Z,12.90
2019-02-16T04:34:57.829Z,16.77
2019-02-16T04:39:04.414Z,16.33
2019-02-16T04:43:09.707Z,17.43
2019-02-16T04:47:16.807Z,13.60
2019-02-16T04:51:21.746Z,16.57
2019-02-16T04:55:26.771Z,18.93
2019-02-16T04:59:31.848Z,14.67
2019-02-16T05:03:36.795Z,16.90
2019-02-16T05:07:41.788Z,14.43
2019-02-16T05:11:46.809Z,16.53
2019-02-16T05:15:51.824Z,18.57
2019-02-16T05:19:56.824Z,23.87
2019-02-16T05:24:01.829Z,15.67
2019-02-16T05:28:06.816Z,14.27
2019-02-16T05:32:11.847Z,13.27
2019-02-16T05:36:16.899Z,14.57
2019-02-16T05:40:21.912Z,14.60
2019-02-16T05:44:26.924Z,15.17
2019-02-16T05:48:32.096Z,12.50
2019-02-16T05:52:37.121Z,13.97
2019-02-16T05:56:42.140Z,19.17
2019-02-16T06:00:47.140Z,17.83
2019-02-16T06:04:52.147Z,19.23
2019-02-16T06:08:57.185Z,15.67
2019-02-16T06:13:02.190Z,17.50
2019-02-16T06:17:07.279Z,21.40
2019-02-16T06:21:12.306Z,17.63
2019-02-16T06:25:17.358Z,21.67
2019-02-16T06:29:22.336Z,18.17
2019-02-16T06:33:27.419Z,20.80
2019-02-16T06:37:32.472Z,24.27
2019-02-16T06:41:37.512Z,16.97
2019-02-16T06:45:42.676Z,16.20
2019-02-16T06:49:47.689Z,17.33
2019-02-16T06:53:52.670Z,19.27
2019-02-16T06:57:57.691Z,16.47
2019-02-16T07:02:02.728Z,16.97
2019-02-16T07:06:07.816Z,15.50
2019-02-16T07:10:13.191Z,16.33
2019-02-16T07:14:18.500Z,16.87
2019-02-16T07:18:25.493Z,10.00
2019-02-16T07:22:30.783Z,8.73
2019-02-16T07:26:36.248Z,10.30
2019-02-16T07:30:41.543Z,12.13
2019-02-16T07:34:46.836Z,10.33
2019-02-16T07:38:52.132Z,10.47
2019-02-16T07:42:57.488Z,11.43
2019-02-16T07:47:07.422Z,17.43
2019-02-16T07:51:14.345Z,9.60
2019-02-16T07:55:21.256Z,13.83
2019-02-16T07:59:40.596Z,9.17
2019-02-16T08:03:53.511Z,11.97
2019-02-16T08:08:00.436Z,9.97
2019-02-16T08:12:07.419Z,9.10
2019-02-16T08:16:23.183Z,9.93
2019-02-16T08:20:36.042Z,15.80
2019-02-16T08:24:54.818Z,12.10
2019-02-16T08:29:04.920Z,8.63
2019-02-16T08:33:14.546Z,15.13
2019-02-16T08:37:21.504Z,15.23
2019-02-16T08:41:46.697Z,7.97
2019-02-16T08:45:53.601Z,9.67
2019-02-16T08:50:00.535Z,8.20
2019-02-16T08:54:07.457Z,8.33
2019-02-16T08:58:21.278Z,11.17
2019-02-16T09:02:43.650Z,11.33
2019-02-16T09:06:50.509Z,8.63
2019-02-16T09:11:00.149Z,10.03
2019-02-16T09:15:11.764Z,12.73
2019-02-16T09:19:30.611Z,9.57
2019-02-16T09:23:40.678Z,15.73
2019-02-16T09:27:59.704Z,8.00
2019-02-16T09:32:21.689Z,9.10
2019-02-16T09:36:31.391Z,9.93
2019-02-16T09:40:50.131Z,13.17
2019-02-16T09:45:02.778Z,13.17
2019-02-16T09:49:20.719Z,10.97
2019-02-16T09:53:27.879Z,9.87
2019-02-16T09:57:51.080Z,8.10
2019-02-16T10:01:58.002Z,9.13
2019-02-16T10:06:07.755Z,11.70
2019-02-16T10:10:14.745Z,9.43
2019-02-16T10:14:24.174Z,11.07
2019-02-16T10:18:49.496Z,7.53
2019-02-16T10:23:14.548Z,6.63
2019-02-16T10:27:21.475Z,6.57
2019-02-16T10:31:30.869Z,6.63
2019-02-16T10:35:40.863Z,7.63
2019-02-16T10:39:47.791Z,11.10
2019-02-16T10:43:54.709Z,7.33
2019-02-16T10:48:13.653Z,12.57
2019-02-16T10:52:20.536Z,12.33
2019-02-16T10:56:42.547Z,6.13
2019-02-16T11:00:58.481Z,10.13
2019-02-16T11:05:18.173Z,6.87
2019-02-16T11:09:27.787Z,8.93
2019-02-16T11:13:46.844Z,7.23
2019-02-16T11:18:10.270Z,5.87
2019-02-16T11:22:19.839Z,6.93
2019-02-16T11:26:43.555Z,7.07
2019-02-16T11:31:08.244Z,7.10
2019-02-16T11:35:27.353Z,8.67
2019-02-16T11:39:34.281Z,9.60
2019-02-16T11:43:41.228Z,8.27
2019-02-16T11:47:48.147Z,6.40
2019-02-16T11:52:10.048Z,4.03
2019-02-16T11:56:16.964Z,6.17
2019-02-16T12:00:33.106Z,4.43
2019-02-16T12:04:48.778Z,8.73
2019-02-16T12:09:01.578Z,5.27
2019-02-16T12:13:22.204Z,6.87
2019-02-16T12:17:45.371Z,4.63
2019-02-16T12:21:58.048Z,14.00
2019-02-16T12:26:10.969Z,8.47
2019-02-16T12:30:34.256Z,10.93
2019-02-16T12:34:41.198Z,12.27
2019-02-16T12:38:48.127Z,10.70
2019-02-16T12:42:55.052Z,8.10
2019-02-16T12:47:02.024Z,15.97
2019-02-16T12:51:17.987Z,12.90
2019-02-16T12:55:41.545Z,15.60
2019-02-16T12:59:57.656Z,12.83
2019-02-16T13:04:10.310Z,9.67
2019-02-16T13:08:29.219Z,8.47
2019-02-16T13:12:36.140Z,11.83
2019-02-16T13:16:46.150Z,16.30
2019-02-16T13:21:09.307Z,12.03
2019-02-16T13:25:24.435Z,15.87
2019-02-16T13:29:27.610Z,13.53
2019-02-16T13:33:34.602Z,16.63
2019-02-16T13:37:41.515Z,15.33
2019-02-16T13:41:51.123Z,13.83
2019-02-16T13:46:10.095Z,13.83
2019-02-16T13:50:17.014Z,13.00
2019-02-16T13:54:35.895Z,21.70
2019-02-16T13:58:42.837Z,12.73
2019-02-16T14:02:58.556Z,16.43
2019-02-16T14:07:05.491Z,16.77
2019-02-16T14:11:12.448Z,16.63
2019-02-16T14:15:19.375Z,19.63
2019-02-16T14:19:24.671Z,15.83
2019-02-16T14:23:29.931Z,26.20
2019-02-16T14:27:35.265Z,17.23
2019-02-16T14:31:40.572Z,32.27
2019-02-16T14:35:45.860Z,22.17
2019-02-16T14:39:51.188Z,22.80
2019-02-16T14:43:56.464Z,25.80
2019-02-16T14:48:01.747Z,28.23
2019-02-16T14:52:07.064Z,24.03
2019-02-16T14:56:12.403Z,29.23
2019-02-16T15:00:17.711Z,32.23
2019-02-16T15:04:23.003Z,31.90
2019-02-16T15:08:28.310Z,31.33
2019-02-16T15:12:33.643Z,26.17
2019-02-16T15:16:38.911Z,31.03
2019-02-16T15:20:44.184Z,26.50
2019-02-16T15:24:49.486Z,28.37
2019-02-16T15:28:55.743Z,27.43
2019-02-16T15:33:01.030Z,29.83
2019-02-16T15:37:06.328Z,24.93
2019-02-16T15:41:11.647Z,34.53
2019-02-16T15:45:16.911Z,27.97
2019-02-16T15:49:22.258Z,20.90
2019-02-16T15:53:27.524Z,21.37
2019-02-16T15:57:32.811Z,29.57
2019-02-16T16:01:38.186Z,30.90
2019-02-16T16:05:43.506Z,27.67
2019-02-16T16:10:02.476Z,21.70
2019-02-16T16:14:16.572Z,22.43
2019-02-16T16:18:25.939Z,27.47
2019-02-16T16:22:32.931Z,26.57
2019-02-16T16:26:39.887Z,27.17
2019-02-16T16:30:58.827Z,24.10
2019-02-16T16:35:09.259Z,25.77
2019-02-16T16:39:18.955Z,27.20
2019-02-16T16:43:35.182Z,30.83
2019-02-16T16:47:58.396Z,47.60
2019-02-16T16:52:09.213Z,43.17
2019-02-16T16:56:28.470Z,34.77
2019-02-16T17:00:31.406Z,44.30
2019-02-16T17:04:38.893Z,37.33
2019-02-16T17:08:50.036Z,33.23
2019-02-16T17:13:15.550Z,40.03
2019-02-16T17:17:23.214Z,54.20
2019-02-16T17:21:46.911Z,43.67
2019-02-16T17:25:54.764Z,34.87
2019-02-16T17:30:17.817Z,38.57
2019-02-16T17:34:39.742Z,38.73
2019-02-16T17:38:47.152Z,38.83
2019-02-16T17:43:09.533Z,62.70
2019-02-16T17:47:34.762Z,32.73
2019-02-16T17:52:01.399Z,46.03
2019-02-16T17:56:11.172Z,46.47
2019-02-16T18:00:18.040Z,33.83
2019-02-16T18:04:30.751Z,48.73
2019-02-16T18:08:53.920Z,40.57
2019-02-16T18:13:00.559Z,37.70
2019-02-16T18:17:10.455Z,30.57
2019-02-16T18:21:26.221Z,38.70
2019-02-16T18:25:33.573Z,37.67
2019-02-16T18:29:42.701Z,41.13
2019-02-16T18:33:55.829Z,33.53
2019-02-16T18:38:05.809Z,35.80
2019-02-16T18:42:27.536Z,36.80
2019-02-16T18:47:00.107Z,40.07
2019-02-16T18:51:09.768Z,32.67
2019-02-16T18:55:16.431Z,34.63
2019-02-16T18:59:23.062Z,41.37
2019-02-16T19:03:52.949Z,46.83
2019-02-16T19:08:02.755Z,38.93
2019-02-16T19:12:24.851Z,41.40
2019-02-16T19:16:43.761Z,35.50
2019-02-16T19:21:02.384Z,36.63
2019-02-16T19:25:27.352Z,37.23
2019-02-16T19:29:42.976Z,33.87
2019-02-16T19:34:01.163Z,38.37
2019-02-16T19:38:13.762Z,33.00
2019-02-16T19:42:23.554Z,33.67
2019-02-16T19:46:42.184Z,37.20
2019-02-16T19:50:54.621Z,41.83
2019-02-16T19:55:17.547Z,37.43
2019-02-16T19:59:24.197Z,42.83
2019-02-16T20:03:33.795Z,42.53
2019-02-16T20:07:49.568Z,30.87
2019-02-16T20:11:59.147Z,33.13
2019-02-16T20:16:08.528Z,33.50
2019-02-16T20:20:20.922Z,33.87
2019-02-16T20:24:33.331Z,37.53
2019-02-16T20:28:49.166Z,38.63
2019-02-16T20:32:58.548Z,41.90
2019-02-16T20:37:05.201Z,44.83
2019-02-16T20:41:21.234Z,39.30
2019-02-16T20:45:27.896Z,37.83
2019-02-16T20:49:37.576Z,37.73
2019-02-16T20:53:48.797Z,35.67
2019-02-16T20:57:55.672Z,36.83
2019-02-16T21:02:02.328Z,32.13
2019-02-16T21:06:19.301Z,36.47
2019-02-16T21:10:28.677Z,31.90
2019-02-16T21:14:47.232Z,34.00
2019-02-16T21:18:56.494Z,38.87
2019-02-16T21:23:03.202Z,38.80
2019-02-16T21:27:12.607Z,37.77
2019-02-16T21:31:25.280Z,38.73
2019-02-16T21:35:47.052Z,37.50
2019-02-16T21:39:54.234Z,44.73
2019-02-16T21:44:09.741Z,40.17
2019-02-16T21:48:32.597Z,43.23
2019-02-16T21:52:39.245Z,38.30
2019-02-16T21:56:54.891Z,51.53
2019-02-16T22:01:11.074Z,48.70
2019-02-16T22:05:23.683Z,42.27
2019-02-16T22:09:33.156Z,52.60
2019-02-16T22:13:38.425Z,51.63
2019-02-16T22:17:43.428Z,56.33
2019-02-16T22:21:48.599Z,48.97
2019-02-16T22:25:53.584Z,47.93
2019-02-16T22:29:58.677Z,51.83
2019-02-16T22:34:03.723Z,44.43
2019-02-16T22:38:08.752Z,46.27
2019-02-16T22:42:13.776Z,41.60
2019-02-16T22:46:18.783Z,44.23
2019-02-16T22:50:23.795Z,46.17
2019-02-16T22:54:28.804Z,42.20
2019-02-16T22:58:34.612Z,36.67
2019-02-16T23:02:39.762Z,37.90
2019-02-16T23:06:45.139Z,35.07
2019-02-16T23:10:50.247Z,38.10
2019-02-16T23:14:55.273Z,41.33
2019-02-16T23:19:00.275Z,34.10
2019-02-16T23:23:05.432Z,33.93
2019-02-16T23:27:10.439Z,42.37
2019-02-16T23:31:15.476Z,36.13
2019-02-16T23:35:20.488Z,33.77
2019-02-16T23:39:26.571Z,45.83
2019-02-16T23:43:31.600Z,32.10
2019-02-16T23:47:36.676Z,34.10
2019-02-16T23:51:41.683Z,41.17
2019-02-16T23:55:46.727Z,39.13
2019-02-16T23:59:51.700Z,37.60
